createdAt,value
2023-05-09T05:00:27.552Z,38.67
2023-05-09T05:03:14.638Z,30.38
2023-05-09T05:06:00.652Z,30.05
2023-05-09T05:08:47.098Z,31.60
2023-05-09T05:11:33.987Z,27.90
2023-05-09T05:14:22.552Z,30.95
2023-05-09T05:23:39.378Z,28.65
2023-05-09T05:26:26.370Z,27.88
2023-05-09T05:29:13.811Z,26.92
2023-05-09T05:32:00.520Z,29.52
2023-05-09T05:34:47.170Z,23.48
2023-05-09T05:37:34.264Z,26.88
2023-05-09T05:40:22.352Z,26.55
2023-05-09T05:43:10.271Z,28.00
2023-05-09T05:45:58.508Z,25.92
2023-05-09T05:48:47.210Z,27.55
2023-05-09T05:51:33.904Z,28.60
2023-05-09T05:54:21.494Z,24.48
2023-05-09T05:57:09.456Z,26.27
2023-05-09T05:59:55.904Z,22.42
2023-05-09T06:02:44.611Z,23.67
2023-05-09T06:05:38.144Z,25.77
2023-05-09T06:08:25.618Z,27.77
2023-05-09T06:11:12.269Z,27.50
2023-05-09T06:13:59.530Z,26.65
2023-05-09T06:16:47.107Z,26.73
2023-05-09T06:19:34.787Z,24.80
2023-05-09T06:22:21.189Z,25.58
2023-05-09T06:25:10.121Z,23.90
2023-05-09T06:27:56.844Z,24.25
2023-05-09T06:30:44.400Z,26.02
2023-05-09T06:33:30.529Z,27.77
2023-05-09T06:36:16.770Z,26.13
2023-05-09T06:39:03.281Z,28.38
2023-05-09T06:41:49.768Z,29.65
2023-05-09T06:44:44.151Z,25.98
2023-05-09T06:47:32.320Z,27.48
2023-05-09T06:50:18.782Z,28.73
2023-05-09T06:53:04.981Z,31.60
2023-05-09T06:55:51.357Z,30.83
2023-05-09T06:58:37.951Z,30.25
2023-05-09T07:01:24.326Z,26.67
2023-05-09T07:04:11.970Z,31.02
2023-05-09T07:06:59.161Z,32.22
2023-05-09T07:09:45.580Z,27.40
2023-05-09T07:12:32.269Z,29.88
2023-05-09T07:15:28.759Z,28.02
2023-05-09T07:18:23.374Z,30.60
2023-05-09T07:21:11.094Z,26.45
2023-05-09T07:23:57.343Z,28.70
2023-05-09T07:26:43.513Z,29.40
2023-05-09T07:29:30.099Z,28.50
2023-05-09T07:32:16.525Z,29.80
2023-05-09T07:35:03.924Z,29.60
2023-05-09T07:37:51.253Z,33.95
2023-05-09T07:40:38.638Z,35.55
2023-05-09T07:43:25.160Z,34.92
2023-05-09T07:46:12.121Z,29.20
2023-05-09T07:48:58.343Z,30.80
2023-05-09T07:51:44.720Z,30.23
2023-05-09T07:54:32.523Z,31.63
2023-05-09T07:57:18.914Z,30.17
2023-05-09T08:00:07.050Z,32.88
2023-05-09T08:03:00.149Z,34.38
2023-05-09T08:05:47.110Z,31.88
2023-05-09T08:08:33.331Z,28.85
2023-05-09T08:11:21.358Z,31.17
2023-05-09T08:14:07.990Z,28.63
2023-05-09T08:16:54.298Z,28.63
2023-05-09T08:19:40.855Z,28.77
2023-05-09T08:22:27.290Z,28.73
2023-05-09T08:25:15.602Z,27.63
2023-05-09T08:28:04.007Z,25.90
2023-05-09T08:30:50.213Z,26.40
2023-05-09T08:33:36.741Z,20.67
2023-05-09T08:36:23.379Z,23.60
2023-05-09T08:39:10.485Z,24.17
2023-05-09T08:42:00.700Z,20.50
2023-05-09T08:44:48.100Z,23.80
2023-05-09T08:47:36.725Z,26.15
2023-05-09T08:50:23.573Z,22.75
2023-05-09T08:53:10.342Z,23.77
2023-05-09T08:55:56.920Z,23.90
2023-05-09T08:58:43.364Z,20.55
2023-05-09T09:01:33.875Z,24.05
2023-05-09T09:04:20.545Z,20.67
2023-05-09T09:07:07.987Z,23.05
2023-05-09T09:09:55.702Z,22.02
2023-05-09T09:12:43.386Z,21.70
2023-05-09T09:15:35.864Z,21.35
2023-05-09T09:18:29.384Z,20.55
2023-05-09T09:21:17.569Z,19.10
2023-05-09T09:24:04.449Z,18.13
2023-05-09T09:26:51.894Z,18.50
2023-05-09T09:29:39.531Z,19.77
2023-05-09T09:32:34.121Z,18.00
2023-05-09T09:35:21.848Z,20.02
2023-05-09T09:38:08.186Z,16.67
2023-05-09T09:40:55.765Z,16.02
2023-05-09T09:43:46.989Z,15.00
2023-05-09T09:46:42.385Z,13.18
2023-05-09T09:49:29.265Z,15.32
2023-05-09T09:52:24.093Z,15.57
2023-05-09T09:55:10.962Z,12.52
2023-05-09T09:57:57.994Z,16.05
2023-05-09T10:00:45.890Z,15.27
2023-05-09T10:03:37.065Z,13.98
2023-05-09T10:06:23.297Z,13.50
2023-05-09T10:09:10.919Z,15.57
2023-05-09T10:11:58.394Z,19.95
2023-05-09T10:14:46.013Z,15.40
2023-05-09T13:28:08.772Z,10.93
2023-05-09T13:30:55.209Z,10.13
2023-05-09T13:33:41.861Z,9.73
2023-05-09T13:36:29.060Z,10.18
2023-05-09T13:39:15.050Z,10.10
2023-05-09T13:42:02.151Z,12.02
2023-05-09T13:44:49.677Z,7.63
2023-05-09T13:47:37.961Z,9.88
2023-05-09T13:50:25.116Z,11.70
2023-05-09T13:53:11.288Z,8.98
2023-05-09T13:55:57.688Z,9.05
2023-05-09T13:58:44.227Z,11.07
2023-05-09T14:01:32.125Z,10.15
2023-05-09T14:04:18.739Z,8.55
2023-05-09T14:10:15.786Z,9.15
2023-05-09T14:13:03.249Z,10.80
2023-05-09T14:15:49.858Z,7.35
2023-05-09T14:18:37.454Z,10.05
2023-05-09T14:21:23.736Z,8.40
2023-05-09T14:24:10.713Z,7.93
2023-05-09T14:26:57.239Z,9.13
2023-05-09T14:29:44.068Z,8.63
2023-05-09T14:32:30.472Z,10.73
2023-05-09T14:35:18.728Z,8.98
2023-05-09T14:38:05.266Z,10.77
2023-05-09T14:40:51.603Z,11.23
2023-05-09T14:43:37.836Z,10.70
2023-05-09T14:46:24.860Z,10.70
2023-05-09T14:49:11.578Z,9.23
2023-05-09T14:51:59.180Z,9.60
2023-05-09T14:54:45.625Z,9.60
2023-05-09T14:57:32.211Z,9.50
2023-05-09T15:48:02.031Z,7.68
2023-05-09T15:50:49.553Z,8.23
2023-05-09T15:54:08.617Z,7.95
2023-05-09T15:56:54.665Z,8.10
2023-05-09T15:59:41.128Z,7.22
2023-05-09T16:02:29.460Z,8.45
2023-05-09T16:05:19.476Z,10.45
2023-05-09T16:08:06.197Z,9.43
2023-05-09T16:10:52.542Z,9.07
2023-05-09T16:13:40.872Z,7.68
2023-05-09T16:16:27.318Z,7.60
2023-05-09T16:19:14.342Z,10.32
2023-05-09T16:22:04.121Z,8.85
2023-05-09T16:24:52.105Z,9.32
2023-05-09T16:27:43.018Z,9.95
2023-05-09T16:30:29.720Z,11.15
2023-05-09T16:33:18.859Z,11.10
2023-05-09T16:36:05.886Z,11.33
2023-05-09T16:38:53.637Z,11.57
2023-05-09T16:41:39.853Z,10.40
2023-05-09T16:44:26.361Z,12.68
2023-05-09T16:47:12.737Z,13.25
2023-05-09T16:49:59.316Z,11.38
2023-05-09T16:52:45.694Z,13.98
2023-05-09T16:55:33.697Z,13.05
2023-05-09T16:58:20.132Z,14.05
2023-05-09T17:01:06.573Z,12.68
2023-05-09T17:03:55.499Z,13.38
2023-05-09T17:06:42.043Z,12.75
2023-05-09T17:09:28.691Z,14.23
2023-05-09T17:12:18.121Z,14.80
2023-05-09T17:15:05.699Z,14.88
2023-05-09T17:17:51.971Z,14.02
2023-05-09T17:20:38.367Z,15.35
2023-05-09T17:23:27.314Z,16.20
2023-05-09T17:26:13.866Z,13.95
2023-05-09T17:29:03.549Z,13.38
2023-05-09T17:31:49.971Z,13.55
2023-05-09T17:34:36.758Z,13.63
2023-05-09T17:37:22.703Z,17.05
2023-05-09T17:40:10.315Z,12.63
2023-05-09T17:42:56.460Z,11.55
2023-05-09T17:45:45.827Z,12.88
2023-05-09T17:48:32.199Z,11.95
2023-05-09T17:51:18.497Z,10.00
2023-05-09T17:54:05.577Z,12.40
2023-05-09T17:56:58.869Z,10.43
2023-05-09T17:59:47.823Z,8.07
2023-05-09T18:02:36.074Z,7.93
2023-05-09T18:05:23.338Z,9.30
2023-05-09T18:08:11.010Z,10.35
2023-05-09T18:10:57.689Z,11.35
2023-05-09T18:13:43.829Z,8.65
2023-05-09T18:16:30.297Z,10.93
2023-05-09T18:19:18.069Z,10.23
2023-05-09T18:22:04.358Z,10.93
2023-05-09T18:24:50.926Z,12.73
2023-05-09T18:27:37.398Z,10.10
2023-05-09T18:30:23.629Z,10.35
2023-05-09T18:33:09.851Z,11.27
2023-05-09T18:35:57.641Z,12.63
2023-05-09T18:38:44.503Z,11.82
2023-05-09T18:41:31.756Z,11.45
2023-05-09T18:44:18.163Z,14.02
2023-05-09T18:47:07.759Z,12.67
2023-05-09T18:49:54.410Z,15.27
2023-05-09T18:52:45.457Z,14.65
2023-05-09T18:55:32.029Z,19.17
2023-05-09T18:58:18.345Z,15.18
2023-05-09T19:46:22.797Z,19.55
2023-05-09T19:49:09.706Z,15.90
2023-05-09T19:51:56.325Z,15.48
2023-05-09T19:54:42.731Z,15.07
2023-05-09T19:57:29.229Z,12.55
2023-05-09T22:00:26.380Z,86.25
2023-05-09T22:03:14.103Z,83.32
2023-05-09T22:06:00.237Z,78.68
2023-05-09T22:08:46.590Z,72.80
2023-05-09T22:11:33.527Z,78.80
2023-05-09T22:14:19.892Z,75.10
